Time;durP1;ratioP1;P1;durP2;ratioP2;P2;SDS_P1;SDS_P2;PMS_P1;PMS_P2;Temp;Humidity;BMP_temperature;BMP_pressure;BME280_temperature;BME280_humidity;BME280_pressure;Samples;Min_cycle;Max_cycle;Signal;HPM_P1;HPM_P2
2023/03/17 00:01:43;;;;;;;0.25;0.25;;;11.70;98.30;;;;;;4992850;28;20537;-73
2023/03/17 00:04:11;;;;;;;2.75;0.88;;;11.70;98.50;;;;;;4992906;28;20052;-72
2023/03/17 00:06:39;;;;;;;6.13;1.45;;;11.60;98.40;;;;;;4992465;28;20022;-72
2023/03/17 00:09:10;;;;;;;1.13;0.80;;;11.60;98.30;;;;;;4991626;28;20030;-73
2023/03/17 00:11:36;;;;;;;0.20;0.20;;;11.60;98.10;;;;;;4991583;28;20030;-72
2023/03/17 00:14:03;;;;;;;0.43;0.43;;;11.60;98.30;;;;;;4992768;28;20056;-73
2023/03/17 00:16:31;;;;;;;0.25;0.25;;;11.60;98.30;;;;;;4992606;28;20030;-72
2023/03/17 00:18:57;;;;;;;0.10;0.10;;;11.50;98.30;;;;;;4992917;28;20062;-71
2023/03/17 00:21:31;;;;;;;0.30;0.30;;;11.60;98.10;;;;;;4992367;28;20148;-71
2023/03/17 00:23:57;;;;;;;0.20;0.20;;;11.60;98.00;;;;;;4992799;28;20066;-71
2023/03/17 00:26:23;;;;;;;0.95;0.50;;;11.60;98.10;;;;;;4992561;28;20030;-71
2023/03/17 00:28:50;;;;;;;0.30;0.30;;;11.50;98.20;;;;;;4992556;28;20034;-71
2023/03/17 00:31:27;;;;;;;0.10;0.10;;;11.60;98.20;;;;;;4991413;28;20105;-71
2023/03/17 00:33:54;;;;;;;0.15;0.15;;;11.60;98.30;;;;;;4966989;28;20031;-71
2023/03/17 00:36:29;;;;;;;0.30;0.30;;;11.60;98.10;;;;;;4992245;28;20022;-71
2023/03/17 00:38:57;;;;;;;0.20;0.20;;;11.50;98.20;;;;;;4991356;28;20418;-71
2023/03/17 00:41:25;;;;;;;0.28;0.28;;;11.50;98.20;;;;;;4991245;28;20026;-71
2023/03/17 00:43:52;;;;;;;0.00;0.00;;;11.40;98.30;;;;;;4992455;28;20065;-71
2023/03/17 00:46:23;;;;;;;0.10;0.10;;;11.50;98.20;;;;;;4993184;28;20042;-71
2023/03/17 00:48:49;;;;;;;7.25;0.68;;;11.70;98.00;;;;;;4994619;28;20043;-71
2023/03/17 00:51:15;;;;;;;0.10;0.10;;;11.70;97.90;;;;;;4995587;28;20033;-71
2023/03/17 00:53:42;;;;;;;0.35;0.35;;;11.50;98.20;;;;;;4994591;28;20383;-71
2023/03/17 00:56:17;;;;;;;0.15;0.15;;;11.50;98.20;;;;;;4994532;28;20037;-72
2023/03/17 00:58:43;;;;;;;0.52;0.52;;;11.50;98.20;;;;;;4995898;28;20041;-70
2023/03/17 01:01:09;;;;;;;0.93;0.75;;;11.40;98.40;;;;;;4994273;28;20147;-71
2023/03/17 01:03:35;;;;;;;0.38;0.38;;;11.50;98.30;;;;;;4995866;28;20471;-71
2023/03/17 01:06:03;;;;;;;0.40;0.40;;;11.60;98.20;;;;;;4994085;28;20061;-71
2023/03/17 01:08:30;;;;;;;0.17;0.17;;;11.60;98.20;;;;;;4978133;28;20117;-71
2023/03/17 01:10:56;;;;;;;0.00;0.00;;;11.60;98.10;;;;;;4994562;28;20058;-71
2023/03/17 01:13:23;;;;;;;0.10;0.10;;;11.40;98.50;;;;;;4995506;28;20042;-71
2023/03/17 01:15:50;;;;;;;0.20;0.20;;;11.60;98.30;;;;;;4995379;28;20022;-71
2023/03/17 01:18:19;;;;;;;0.03;0.03;;;11.50;98.20;;;;;;4995410;28;20478;-71
2023/03/17 01:20:45;;;;;;;0.17;0.17;;;11.50;98.40;;;;;;4993433;28;20053;-71
2023/03/17 01:23:12;;;;;;;0.38;0.38;;;11.20;98.80;;;;;;4995317;28;20026;-71
2023/03/17 01:25:41;;;;;;;0.30;0.30;;;11.20;99.10;;;;;;4995314;28;20073;-72
2023/03/17 01:28:11;;;;;;;0.10;0.10;;;11.10;99.30;;;;;;4986832;28;20023;-71
2023/03/17 01:30:39;;;;;;;0.28;0.28;;;11.00;99.60;;;;;;4974210;28;20077;-71
2023/03/17 01:33:07;;;;;;;0.10;0.10;;;11.00;99.50;;;;;;4975517;28;20029;-72
2023/03/17 01:35:35;;;;;;;2.58;0.30;;;11.10;99.50;;;;;;4974310;28;20038;-72
2023/03/17 01:38:02;;;;;;;0.77;0.40;;;11.00;99.40;;;;;;4975586;28;20085;-72
2023/03/17 01:40:32;;;;;;;0.32;0.15;;;10.90;99.70;;;;;;4975673;28;20082;-72
2023/03/17 01:43:09;;;;;;;0.32;0.20;;;11.00;99.70;;;;;;4974274;28;20061;-72
2023/03/17 01:46:12;;;;;;;0.10;0.10;;;10.90;99.80;;;;;;4975479;28;20384;-72
2023/03/17 01:48:45;;;;;;;0.20;0.20;;;11.00;99.70;;;;;;4974823;28;20061;-72
2023/03/17 01:51:19;;;;;;;0.20;0.20;;;11.20;99.60;;;;;;4974094;28;20494;-72
2023/03/17 01:53:48;;;;;;;0.70;0.57;;;11.30;99.30;;;;;;4975284;28;20031;-73
2023/03/17 01:56:15;;;;;;;0.10;0.10;;;11.20;99.30;;;;;;4958129;28;20031;-72
2023/03/17 01:58:45;;;;;;;0.20;0.20;;;11.20;99.40;;;;;;4972719;28;20050;-72
2023/03/17 02:01:12;;;;;;;0.13;0.13;;;11.10;99.50;;;;;;4975228;28;20534;-72
2023/03/17 02:03:39;;;;;;;0.32;0.20;;;11.20;99.40;;;;;;4974728;28;20125;-72
2023/03/17 02:06:06;;;;;;;1.15;1.10;;;11.10;99.50;;;;;;4975194;28;20050;-72
2023/03/17 02:08:31;;;;;;;0.43;0.43;;;11.10;99.50;;;;;;4973960;28;20030;-71
2023/03/17 02:11:02;;;;;;;0.40;0.40;;;11.10;99.70;;;;;;4974914;28;20121;-72
2023/03/17 02:13:28;;;;;;;0.22;0.20;;;11.10;99.60;;;;;;4974884;28;20049;-72
2023/03/17 02:15:53;;;;;;;2.85;1.02;;;11.30;99.30;;;;;;4973594;28;20463;-72
2023/03/17 02:18:22;;;;;;;0.10;0.10;;;11.20;99.50;;;;;;4974655;28;20042;-72
2023/03/17 02:20:48;;;;;;;2.85;0.20;;;11.20;99.40;;;;;;4973655;28;20031;-72
2023/03/17 02:23:18;;;;;;;0.25;0.10;;;11.20;99.40;;;;;;4974605;28;20057;-71
2023/03/17 02:25:46;;;;;;;0.30;0.30;;;11.20;99.60;;;;;;4974745;28;20054;-72
2023/03/17 02:28:24;;;;;;;0.20;0.20;;;11.10;99.70;;;;;;4974591;28;20376;-72
2023/03/17 02:30:51;;;;;;;0.10;0.10;;;11.20;99.60;;;;;;4973564;28;20045;-71
2023/03/17 02:33:17;;;;;;;3.92;1.00;;;11.10;99.90;;;;;;4974239;28;20050;-72
2023/03/17 02:35:44;;;;;;;0.08;0.08;;;11.10;99.70;;;;;;4975001;28;20035;-72
2023/03/17 02:38:10;;;;;;;0.35;0.35;;;11.20;99.70;;;;;;4974226;28;20031;-72
2023/03/17 02:40:36;;;;;;;0.10;0.10;;;11.10;99.90;;;;;;4973443;28;20038;-72
2023/03/17 02:43:03;;;;;;;0.10;0.10;;;11.10;99.80;;;;;;4974468;28;20053;-72
2023/03/17 02:45:28;;;;;;;0.10;0.10;;;11.00;99.90;;;;;;4974472;28;20046;-73
2023/03/17 02:47:54;;;;;;;0.15;0.15;;;11.10;99.90;;;;;;4974104;28;20494;-72
2023/03/17 02:50:23;;;;;;;0.20;0.20;;;11.10;99.90;;;;;;4974032;28;20039;-72
2023/03/17 02:52:50;;;;;;;0.10;0.10;;;11.10;99.70;;;;;;4974466;28;20152;-73
2023/03/17 02:55:16;;;;;;;0.65;0.65;;;11.10;99.80;;;;;;4974136;28;20023;-72
2023/03/17 02:57:42;;;;;;;0.00;0.00;;;11.00;99.90;;;;;;4974651;28;20027;-71
2023/03/17 03:00:09;;;;;;;0.10;0.10;;;11.00;99.90;;;;;;4974207;28;20399;-71
2023/03/17 03:02:36;;;;;;;0.10;0.10;;;11.00;99.90;;;;;;4974060;28;20054;-71
2023/03/17 03:05:02;;;;;;;2.00;0.20;;;11.00;99.90;;;;;;4973962;28;20118;-70
2023/03/17 03:07:29;;;;;;;0.10;0.10;;;11.00;99.90;;;;;;4972808;28;20490;-71
2023/03/17 03:09:55;;;;;;;5.35;0.65;;;10.90;99.90;;;;;;4973432;28;20479;-71
2023/03/17 03:12:21;;;;;;;0.10;0.10;;;10.90;99.90;;;;;;4972957;28;20086;-71
2023/03/17 03:14:47;;;;;;;0.10;0.10;;;11.00;99.90;;;;;;4973951;28;20430;-71
2023/03/17 03:17:14;;;;;;;0.10;0.10;;;11.10;99.90;;;;;;4973965;28;20368;-71
2023/03/17 03:19:39;;;;;;;0.05;0.05;;;11.10;99.90;;;;;;4973856;28;20105;-71
2023/03/17 03:22:05;;;;;;;0.13;0.13;;;10.90;99.90;;;;;;4973792;28;20102;-71
2023/03/17 03:24:31;;;;;;;0.15;0.15;;;10.80;99.90;;;;;;4973667;28;20121;-71
2023/03/17 03:26:57;;;;;;;0.10;0.10;;;10.60;99.90;;;;;;4974008;28;20038;-71
2023/03/17 03:29:22;;;;;;;0.10;0.10;;;10.70;99.90;;;;;;4973649;28;20408;-71
2023/03/17 03:31:48;;;;;;;0.10;0.10;;;10.60;99.90;;;;;;4973616;28;20391;-71
2023/03/17 03:34:14;;;;;;;4.90;0.28;;;10.60;99.90;;;;;;4973708;28;20089;-71
2023/03/17 03:36:40;;;;;;;0.10;0.10;;;10.60;99.90;;;;;;4972283;28;20035;-71
2023/03/17 03:39:07;;;;;;;0.85;0.60;;;10.70;99.90;;;;;;4973760;28;20022;-71
2023/03/17 03:41:33;;;;;;;0.10;0.10;;;10.80;99.90;;;;;;4973620;28;20488;-71
2023/03/17 03:43:59;;;;;;;0.10;0.10;;;10.70;99.90;;;;;;4973351;28;20042;-71
2023/03/17 03:46:25;;;;;;;0.25;0.25;;;10.70;99.90;;;;;;4972361;28;20460;-71
2023/03/17 03:48:51;;;;;;;0.43;0.43;;;10.90;99.90;;;;;;4973305;28;20063;-71
2023/03/17 03:51:17;;;;;;;0.52;0.40;;;10.90;99.90;;;;;;4973545;28;20109;-71
2023/03/17 03:53:43;;;;;;;2.50;1.95;;;10.90;99.90;;;;;;4972391;28;20161;-70
2023/03/17 03:56:09;;;;;;;0.10;0.10;;;11.00;99.90;;;;;;4973642;28;20094;-71
2023/03/17 03:58:35;;;;;;;0.20;0.20;;;11.00;99.90;;;;;;4971942;28;20086;-71
2023/03/17 04:01:05;;;;;;;0.30;0.30;;;11.00;99.90;;;;;;4973524;28;20047;-71
2023/03/17 04:03:31;;;;;;;0.85;0.85;;;11.00;99.90;;;;;;4973222;28;20041;-72
2023/03/17 04:05:57;;;;;;;0.17;0.17;;;10.90;99.90;;;;;;4973425;28;20018;-70
2023/03/17 04:08:24;;;;;;;0.30;0.30;;;10.90;99.90;;;;;;4972330;28;20487;-73
2023/03/17 04:10:50;;;;;;;0.25;0.25;;;10.90;99.90;;;;;;4973222;28;20475;-73
2023/03/17 04:13:16;;;;;;;0.10;0.10;;;11.00;99.90;;;;;;4973230;28;20037;-73
2023/03/17 04:15:41;;;;;;;1.20;0.82;;;11.00;99.90;;;;;;4972024;28;20038;-73
2023/03/17 04:18:08;;;;;;;0.00;0.00;;;11.00;99.90;;;;;;4973368;28;20113;-73
2023/03/17 04:20:34;;;;;;;0.20;0.20;;;11.00;99.90;;;;;;4973266;28;20034;-73
2023/03/17 04:23:00;;;;;;;0.10;0.10;;;11.10;99.90;;;;;;4975690;28;20384;-72
2023/03/17 04:25:26;;;;;;;0.20;0.20;;;11.10;99.90;;;;;;4976916;28;20074;-72
2023/03/17 04:27:52;;;;;;;0.30;0.30;;;11.00;99.90;;;;;;4976686;28;20058;-72
2023/03/17 04:30:18;;;;;;;0.10;0.10;;;11.00;99.90;;;;;;4975825;28;20089;-73
2023/03/17 04:32:45;;;;;;;0.05;0.05;;;10.90;99.90;;;;;;4975445;28;20023;-72
2023/03/17 04:35:17;;;;;;;0.10;0.10;;;11.00;99.90;;;;;;4977009;28;20062;-72
2023/03/17 04:37:44;;;;;;;0.10;0.10;;;11.00;99.90;;;;;;4976919;28;20089;-72
2023/03/17 04:40:12;;;;;;;0.75;0.50;;;10.90;99.90;;;;;;4975472;28;20027;-72
2023/03/17 04:42:38;;;;;;;0.10;0.10;;;10.90;99.90;;;;;;4959205;28;20383;-73
2023/03/17 04:45:05;;;;;;;0.45;0.45;;;10.90;99.90;;;;;;4976612;28;20047;-73
2023/03/17 04:47:31;;;;;;;0.57;0.57;;;10.90;99.90;;;;;;4975257;28;20364;-73
2023/03/17 04:49:58;;;;;;;0.10;0.10;;;10.90;99.90;;;;;;4975412;28;20039;-73
2023/03/17 04:52:24;;;;;;;1.30;0.75;;;10.80;99.90;;;;;;4976657;28;20023;-73
2023/03/17 04:54:49;;;;;;;0.25;0.25;;;10.80;99.90;;;;;;4976809;28;20030;-73
2023/03/17 04:57:15;;;;;;;0.70;0.30;;;10.80;99.90;;;;;;4976138;28;20467;-73
2023/03/17 04:59:41;;;;;;;0.82;0.52;;;10.80;99.90;;;;;;4976563;28;20484;-74
2023/03/17 05:02:07;;;;;;;0.40;0.40;;;10.90;99.90;;;;;;4974859;28;20019;-74
2023/03/17 05:04:33;;;;;;;0.20;0.20;;;10.80;99.90;;;;;;4976427;28;20035;-74
2023/03/17 05:06:59;;;;;;;0.32;0.32;;;10.90;99.90;;;;;;4976166;28;20073;-73
2023/03/17 05:09:26;;;;;;;0.17;0.17;;;10.90;99.90;;;;;;4976534;28;20062;-74
2023/03/17 05:11:51;;;;;;;1.13;0.68;;;10.90;99.90;;;;;;4975763;28;20041;-73
2023/03/17 05:14:17;;;;;;;3.40;0.88;;;10.80;99.90;;;;;;4974771;28;20035;-73
2023/03/17 05:16:46;;;;;;;0.20;0.20;;;10.80;99.90;;;;;;4976075;28;20034;-73
2023/03/17 05:19:12;;;;;;;0.38;0.38;;;10.90;99.90;;;;;;4974661;28;20058;-74
2023/03/17 05:21:37;;;;;;;1.00;0.90;;;10.80;99.90;;;;;;4976099;28;20034;-72
2023/03/17 05:24:04;;;;;;;0.88;0.50;;;10.80;99.90;;;;;;4975783;28;20517;-73
2023/03/17 05:26:29;;;;;;;0.30;0.30;;;10.70;99.90;;;;;;4975722;28;20042;-73
2023/03/17 05:28:55;;;;;;;0.45;0.43;;;10.60;99.90;;;;;;4975884;28;20031;-73
2023/03/17 05:31:21;;;;;;;0.20;0.20;;;10.50;99.90;;;;;;4975887;28;20031;-73
2023/03/17 05:33:48;;;;;;;1.10;0.85;;;10.50;99.90;;;;;;4975354;28;20026;-73
2023/03/17 05:36:14;;;;;;;0.75;0.40;;;10.60;99.90;;;;;;4975860;28;20383;-74
2023/03/17 05:38:40;;;;;;;0.40;0.40;;;10.50;99.90;;;;;;4975950;28;20033;-72
2023/03/17 05:41:06;;;;;;;0.28;0.28;;;10.60;99.90;;;;;;4975498;28;20039;-72
2023/03/17 05:43:32;;;;;;;0.10;0.10;;;10.50;99.90;;;;;;4975260;28;20023;-71
2023/03/17 05:45:58;;;;;;;0.10;0.10;;;10.60;99.90;;;;;;4975644;28;20039;-72
2023/03/17 05:48:24;;;;;;;0.30;0.30;;;10.50;99.90;;;;;;4973922;28;20041;-71
2023/03/17 05:50:50;;;;;;;0.30;0.30;;;10.60;99.90;;;;;;4975582;28;20502;-72
2023/03/17 05:53:16;;;;;;;0.00;0.00;;;10.60;99.90;;;;;;4975514;28;20039;-72
2023/03/17 05:55:42;;;;;;;0.20;0.20;;;10.50;99.90;;;;;;4975297;28;20023;-72
2023/03/17 05:58:08;;;;;;;0.95;0.85;;;10.50;99.90;;;;;;4957530;28;20550;-72
2023/03/17 06:00:35;;;;;;;0.20;0.20;;;10.40;99.90;;;;;;4974747;28;20317;-71
2023/03/17 06:03:02;;;;;;;4.50;2.60;;;10.50;99.90;;;;;;4975083;28;20092;-72
2023/03/17 06:05:29;;;;;;;0.10;0.10;;;10.50;99.90;;;;;;4975128;28;20046;-72
2023/03/17 06:07:55;;;;;;;2.00;0.73;;;10.30;99.90;;;;;;4975199;28;20097;-71
2023/03/17 06:10:21;;;;;;;0.10;0.10;;;10.30;99.90;;;;;;4974817;28;20443;-71
2023/03/17 06:12:46;;;;;;;0.40;0.40;;;10.30;99.90;;;;;;4975174;28;20031;-72
2023/03/17 06:15:12;;;;;;;0.50;0.50;;;10.30;99.90;;;;;;4974993;28;20027;-72
2023/03/17 06:17:38;;;;;;;0.40;0.40;;;10.40;99.90;;;;;;4975049;28;20042;-71
2023/03/17 06:20:04;;;;;;;0.65;0.65;;;10.20;99.90;;;;;;4974875;28;20030;-71
2023/03/17 06:22:30;;;;;;;0.32;0.20;;;10.20;99.90;;;;;;4973828;28;20050;-71
2023/03/17 06:24:56;;;;;;;1.15;0.82;;;10.30;99.90;;;;;;4974415;28;20113;-72
2023/03/17 06:27:22;;;;;;;0.10;0.10;;;10.20;99.90;;;;;;4974882;28;20106;-72
2023/03/17 06:29:47;;;;;;;0.55;0.55;;;10.20;99.90;;;;;;4974748;28;20047;-71
2023/03/17 06:32:13;;;;;;;0.60;0.60;;;10.20;99.90;;;;;;4974845;28;20095;-71
2023/03/17 06:34:41;;;;;;;0.10;0.10;;;10.30;99.90;;;;;;4974618;28;20097;-71
2023/03/17 06:37:09;;;;;;;0.10;0.10;;;10.30;99.90;;;;;;4974636;28;20027;-72
2023/03/17 06:39:36;;;;;;;0.22;0.22;;;10.30;99.90;;;;;;4974303;28;20027;-71
2023/03/17 06:42:02;;;;;;;7.07;0.35;;;10.30;99.90;;;;;;4974667;28;20026;-71
2023/03/17 06:44:28;;;;;;;0.20;0.20;;;10.30;99.90;;;;;;4973838;28;20081;-71
2023/03/17 06:46:54;;;;;;;0.55;0.47;;;10.30;99.90;;;;;;4974158;28;20019;-71
2023/03/17 06:49:20;;;;;;;0.70;0.28;;;10.30;99.90;;;;;;4974396;28;20035;-72
2023/03/17 06:51:46;;;;;;;8.68;0.88;;;10.30;99.90;;;;;;4974423;28;20113;-71
2023/03/17 06:54:11;;;;;;;0.98;0.75;;;10.40;99.90;;;;;;4973954;28;20069;-71
2023/03/17 06:56:37;;;;;;;4.55;0.73;;;10.40;99.90;;;;;;4965751;28;20033;-72
2023/03/17 06:59:03;;;;;;;4.15;1.42;;;10.50;99.90;;;;;;4960025;28;20038;-72
2023/03/17 07:01:30;;;;;;;0.45;0.45;;;10.50;99.90;;;;;;4973159;28;20053;-71
2023/03/17 07:03:56;;;;;;;1.65;1.20;;;10.50;99.90;;;;;;4972092;28;20042;-71
2023/03/17 07:06:22;;;;;;;0.52;0.40;;;10.50;99.90;;;;;;4973451;28;20031;-71
2023/03/17 07:08:49;;;;;;;5.75;0.40;;;10.60;99.90;;;;;;4963498;28;20294;-71
2023/03/17 07:11:15;;;;;;;0.35;0.35;;;10.60;99.90;;;;;;4973157;28;20566;-70
2023/03/17 07:13:41;;;;;;;0.25;0.25;;;10.80;99.90;;;;;;4973217;28;20023;-72
2023/03/17 07:16:08;;;;;;;2.10;0.75;;;10.70;99.90;;;;;;4973137;28;20375;-72
2023/03/17 07:18:33;;;;;;;0.30;0.30;;;10.80;99.90;;;;;;4973338;28;20031;-72
2023/03/17 07:21:01;;;;;;;0.00;0.00;;;10.80;99.90;;;;;;4972220;28;20045;-72
2023/03/17 07:23:28;;;;;;;0.30;0.28;;;10.80;99.90;;;;;;4972722;28;20379;-72
2023/03/17 07:25:54;;;;;;;0.95;0.85;;;10.80;99.90;;;;;;4972751;28;20424;-71
2023/03/17 07:28:20;;;;;;;0.25;0.25;;;10.90;99.90;;;;;;4973176;28;20053;-71
2023/03/17 07:30:49;;;;;;;1.13;1.02;;;10.80;99.90;;;;;;4972523;28;20025;-72
2023/03/17 07:33:16;;;;;;;0.25;0.25;;;10.90;99.90;;;;;;4973373;28;20042;-72
2023/03/17 07:35:43;;;;;;;0.30;0.30;;;11.00;99.90;;;;;;4971684;28;20019;-71
2023/03/17 07:38:10;;;;;;;1.90;0.52;;;11.20;99.90;;;;;;4971208;28;20049;-72
2023/03/17 07:40:37;;;;;;;0.57;0.40;;;11.10;99.90;;;;;;4971718;28;20122;-71
2023/03/17 07:43:03;;;;;;;0.20;0.20;;;11.20;99.90;;;;;;4972098;28;20026;-71
2023/03/17 07:45:30;;;;;;;0.73;0.57;;;11.30;99.90;;;;;;4958047;28;20475;-72
2023/03/17 07:47:56;;;;;;;0.17;0.17;;;11.20;99.90;;;;;;4962096;28;20487;-71
2023/03/17 07:50:22;;;;;;;0.15;0.15;;;11.40;99.90;;;;;;4965915;28;20030;-72
2023/03/17 07:52:47;;;;;;;0.10;0.10;;;11.50;99.90;;;;;;4969824;28;20200;-71
2023/03/17 07:55:14;;;;;;;0.20;0.20;;;11.70;99.90;;;;;;4968406;28;20067;-72
2023/03/17 07:57:40;;;;;;;2.60;1.20;;;11.70;99.90;;;;;;4973496;28;20485;-73
2023/03/17 08:00:09;;;;;;;0.75;0.75;;;11.50;99.90;;;;;;4975270;28;20154;-72
2023/03/17 08:02:38;;;;;;;3.22;2.08;;;11.70;99.90;;;;;;4976593;28;20062;-73
2023/03/17 08:05:06;;;;;;;0.20;0.20;;;11.70;99.90;;;;;;4976505;28;20047;-73
2023/03/17 08:07:33;;;;;;;0.10;0.10;;;11.70;99.90;;;;;;4975662;28;20018;-72
2023/03/17 08:09:59;;;;;;;0.30;0.30;;;11.70;99.90;;;;;;4976551;28;20030;-71
2023/03/17 08:12:25;;;;;;;0.15;0.15;;;11.80;99.90;;;;;;4975225;28;20023;-72
2023/03/17 08:14:51;;;;;;;0.50;0.45;;;11.90;99.90;;;;;;4975154;28;20023;-74
2023/03/17 08:17:17;;;;;;;0.63;0.45;;;12.20;99.90;;;;;;4977310;28;20033;-72
2023/03/17 08:19:43;;;;;;;0.10;0.10;;;12.10;99.90;;;;;;4975278;28;20118;-73
2023/03/17 08:22:09;;;;;;;1.17;0.45;;;12.40;99.90;;;;;;4976496;28;20392;-73
2023/03/17 08:24:35;;;;;;;0.00;0.00;;;12.30;99.90;;;;;;4976874;28;20039;-74
2023/03/17 08:27:02;;;;;;;0.60;0.60;;;12.50;99.90;;;;;;4977117;28;20011;-73
2023/03/17 08:29:29;;;;;;;0.10;0.10;;;12.50;99.90;;;;;;4977238;28;20149;-72
2023/03/17 08:31:56;;;;;;;0.52;0.43;;;12.30;99.90;;;;;;4976852;28;20019;-71
2023/03/17 08:34:23;;;;;;;0.45;0.45;;;12.40;99.90;;;;;;4976421;28;20027;-71
2023/03/17 08:36:50;;;;;;;0.20;0.20;;;12.30;99.90;;;;;;4976849;28;20054;-71
2023/03/17 08:39:16;;;;;;;0.38;0.30;;;12.40;99.90;;;;;;4976872;28;20026;-71
2023/03/17 08:41:42;;;;;;;1.45;1.35;;;12.40;99.90;;;;;;4971434;28;20045;-71
2023/03/17 08:44:08;;;;;;;0.17;0.17;;;12.40;99.90;;;;;;4970331;28;20312;-71
2023/03/17 08:46:34;;;;;;;1.25;1.00;;;12.60;99.90;;;;;;4968470;28;20112;-71
2023/03/17 08:49:00;;;;;;;0.32;0.32;;;12.60;99.90;;;;;;4971480;28;20030;-71
2023/03/17 08:51:31;;;;;;;1.98;1.88;;;12.70;99.90;;;;;;4975917;28;20085;-72
2023/03/17 08:53:57;;;;;;;0.65;0.65;;;12.90;99.90;;;;;;4975705;28;20063;-72
2023/03/17 08:56:23;;;;;;;1.00;0.90;;;13.30;99.90;;;;;;4974151;28;20031;-71
2023/03/17 08:58:50;;;;;;;0.40;0.40;;;13.50;99.90;;;;;;4974331;28;20026;-72
2023/03/17 09:01:17;;;;;;;1.10;1.00;;;13.80;99.90;;;;;;4975826;28;20157;-71
2023/03/17 09:03:44;;;;;;;1.77;1.65;;;13.80;99.90;;;;;;4974908;28;20471;-72
2023/03/17 09:06:11;;;;;;;2.15;0.60;;;13.80;99.90;;;;;;4975588;28;20475;-72
2023/03/17 09:08:38;;;;;;;0.88;0.50;;;13.90;99.90;;;;;;4974160;28;20109;-71
2023/03/17 09:11:09;;;;;;;3.50;0.88;;;13.80;99.90;;;;;;4956387;28;20033;-71
2023/03/17 09:13:36;;;;;;;0.38;0.35;;;13.70;99.90;;;;;;4968499;28;20026;-71
2023/03/17 09:16:02;;;;;;;11.68;1.58;;;13.70;99.90;;;;;;4974162;28;20023;-72
2023/03/17 09:18:30;;;;;;;0.13;0.13;;;13.80;99.90;;;;;;4972915;28;20038;-72
2023/03/17 09:20:56;;;;;;;3.20;1.40;;;13.80;99.90;;;;;;4975648;28;20031;-72
2023/03/17 09:23:22;;;;;;;3.92;1.23;;;14.00;99.70;;;;;;4975105;28;20035;-72
2023/03/17 09:25:48;;;;;;;0.17;0.17;;;14.30;99.50;;;;;;4975103;28;20045;-73
2023/03/17 09:28:14;;;;;;;0.75;0.75;;;14.10;99.90;;;;;;4974587;28;20027;-72
2023/03/17 09:30:41;;;;;;;0.20;0.20;;;13.90;99.90;;;;;;4974374;28;20027;-72
2023/03/17 09:33:09;;;;;;;2.20;1.00;;;14.00;99.90;;;;;;4973656;28;20027;-72
2023/03/17 09:35:35;;;;;;;0.25;0.25;;;14.30;99.90;;;;;;4974935;28;20370;-72
2023/03/17 09:38:00;;;;;;;1.63;1.30;;;14.40;99.90;;;;;;4975083;28;20027;-72
2023/03/17 09:40:35;;;;;;;1.00;0.50;;;14.40;99.90;;;;;;4964272;28;20045;-73
2023/03/17 09:43:22;;;;;;;2.53;0.70;;;14.50;99.90;;;;;;4969131;28;20037;-73
2023/03/17 09:45:48;;;;;;;0.32;0.30;;;14.40;99.90;;;;;;4966902;28;20467;-72
2023/03/17 09:48:32;;;;;;;0.25;0.25;;;14.50;99.90;;;;;;4973848;28;20077;-73
2023/03/17 09:51:12;;;;;;;0.55;0.43;;;14.60;99.90;;;;;;4966848;28;20117;-74
2023/03/17 09:53:58;;;;;;;1.10;0.35;;;14.40;99.90;;;;;;4972480;28;20030;-73
2023/03/17 09:56:27;;;;;;;1.15;0.70;;;14.40;99.90;;;;;;4973618;28;20070;-72
2023/03/17 09:59:17;;;;;;;3.58;1.85;;;14.30;99.90;;;;;;4972467;28;20015;-74
2023/03/17 10:01:42;;;;;;;0.10;0.10;;;14.60;99.90;;;;;;4971801;28;20133;-74
2023/03/17 10:04:10;;;;;;;1.30;0.57;;;14.70;99.90;;;;;;4978139;28;20122;-72
2023/03/17 10:06:48;;;;;;;2.10;0.85;;;14.70;99.90;;;;;;4973863;28;20019;-74
2023/03/17 10:09:21;;;;;;;0.20;0.20;;;14.60;99.90;;;;;;4971016;28;20026;-73
2023/03/17 10:11:51;;;;;;;0.88;0.80;;;14.50;99.90;;;;;;4974459;28;20471;-74
2023/03/17 10:14:32;;;;;;;0.30;0.30;;;14.70;99.90;;;;;;4973920;28;20082;-74
2023/03/17 10:17:09;;;;;;;0.10;0.10;;;14.50;99.90;;;;;;4967543;28;20041;-74
2023/03/17 10:19:43;;;;;;;0.00;0.00;;;15.20;99.80;;;;;;4971839;28;20026;-73
2023/03/17 10:22:24;;;;;;;0.30;0.30;;;15.80;98.90;;;;;;4974657;28;20081;-74
2023/03/17 10:25:01;;;;;;;0.43;0.40;;;15.70;98.30;;;;;;4961008;28;20066;-73
2023/03/17 10:27:32;;;;;;;1.65;0.85;;;15.30;99.10;;;;;;4972908;28;20035;-72
2023/03/17 10:29:58;;;;;;;3.10;2.42;;;15.40;99.40;;;;;;4973706;28;20089;-74
2023/03/17 10:32:26;;;;;;;0.20;0.20;;;15.30;99.30;;;;;;4974317;28;20454;-74
2023/03/17 10:34:53;;;;;;;2.25;1.30;;;15.30;99.60;;;;;;4972205;28;20023;-73
2023/03/17 10:37:21;;;;;;;0.40;0.40;;;15.10;99.90;;;;;;4974055;28;20043;-73
2023/03/17 10:39:58;;;;;;;1.52;1.23;;;15.30;99.40;;;;;;5120111;27;20116;-73
2023/03/17 10:42:27;;;;;;;0.10;0.10;;;15.50;99.30;;;;;;5101678;28;20388;-73
2023/03/17 10:45:03;;;;;;;0.35;0.35;;;15.70;99.50;;;;;;5099192;28;20497;-74
2023/03/17 10:47:43;;;;;;;0.10;0.10;;;16.00;98.80;;;;;;5109582;28;20372;-73
2023/03/17 10:50:27;;;;;;;0.35;0.35;;;15.90;98.80;;;;;;5109526;28;20081;-73
2023/03/17 10:53:01;;;;;;;6.13;1.85;;;16.20;98.40;;;;;;5088406;28;20020;-73
2023/03/17 10:55:38;;;;;;;1.13;0.82;;;16.10;98.40;;;;;;5095000;28;20044;-73
2023/03/17 10:58:14;;;;;;;3.85;1.42;;;15.90;98.50;;;;;;5090921;28;20477;-74
2023/03/17 11:00:55;;;;;;;0.05;0.05;;;15.90;98.60;;;;;;5096980;28;20452;-74
2023/03/17 11:03:28;;;;;;;1.38;0.77;;;15.90;98.50;;;;;;5083088;28;20484;-73
2023/03/17 11:06:05;;;;;;;2.30;0.88;;;15.30;99.40;;;;;;5094778;28;20418;-74
2023/03/17 11:08:34;;;;;;;0.10;0.05;;;15.50;99.40;;;;;;5078022;28;20529;-74
2023/03/17 11:11:06;;;;;;;0.32;0.32;;;15.90;99.20;;;;;;5089580;28;20036;-74
2023/03/17 11:13:31;;;;;;;;;;;15.60;99.20;;;;;;5089922;28;20439;-73
2023/03/17 11:16:06;;;;;;;0.47;0.45;;;15.80;99.20;;;;;;5089395;28;20000;-72
2023/03/17 11:18:36;;;;;;;0.15;0.15;;;15.60;99.40;;;;;;5089367;28;20423;-75
2023/03/17 11:21:07;;;;;;;2.08;0.88;;;15.60;99.60;;;;;;5087846;28;20020;-74
2023/03/17 11:23:52;;;;;;;0.08;0.08;;;15.60;99.70;;;;;;5089448;28;20036;-74
2023/03/17 11:26:42;;;;;;;0.30;0.30;;;15.80;99.90;;;;;;5073033;28;20068;-74
2023/03/17 11:29:26;;;;;;;1.48;0.73;;;16.10;98.90;;;;;;5088006;28;20029;-72
2023/03/17 11:32:03;;;;;;;0.20;0.20;;;16.30;99.00;;;;;;5076947;28;20333;-72
2023/03/17 11:34:55;;;;;;;0.10;0.10;;;16.60;98.80;;;;;;5088877;28;20085;-71
2023/03/17 11:37:42;;;;;;;3.28;0.82;;;16.60;98.70;;;;;;5098352;28;20032;-71
2023/03/17 11:40:42;;;;;;;1.20;1.10;;;16.20;98.50;;;;;;5109221;28;20101;-71
2023/03/17 11:43:25;;;;;;;3.08;1.60;;;16.70;98.30;;;;;;5109283;28;20379;-72
2023/03/17 11:46:05;;;;;;;2.53;2.05;;;16.90;98.30;;;;;;5109154;28;20036;-72
2023/03/17 11:48:46;;;;;;;0.57;0.57;;;16.80;98.00;;;;;;5108989;28;20108;-71
2023/03/17 11:51:12;;;;;;;6.03;3.00;;;16.80;98.10;;;;;;5095951;28;20040;-71
2023/03/17 11:53:42;;;;;;;0.57;0.30;;;16.80;98.30;;;;;;5095376;28;20020;-71
2023/03/17 11:56:40;;;;;;;0.30;0.30;;;17.30;98.40;;;;;;5094271;28;20051;-71
2023/03/17 11:59:16;;;;;;;0.17;0.17;;;17.50;97.70;;;;;;5093847;28;20036;-72
2023/03/17 12:01:53;;;;;;;2.08;0.73;;;17.60;97.80;;;;;;5095436;28;20016;-71
2023/03/17 12:04:22;;;;;;;0.60;0.57;;;18.30;97.10;;;;;;5094108;28;20060;-72
2023/03/17 12:06:53;;;;;;;0.75;0.75;;;18.60;97.00;;;;;;5095104;28;20027;-71
2023/03/17 12:09:43;;;;;;;1.08;1.08;;;18.90;96.20;;;;;;5095640;28;20058;-72
2023/03/17 12:12:13;;;;;;;0.00;0.00;;;18.70;96.70;;;;;;5094874;28;20047;-72
2023/03/17 12:14:47;;;;;;;0.95;0.50;;;18.80;95.80;;;;;;5095229;28;20028;-72
2023/03/17 12:17:17;;;;;;;0.52;0.35;;;18.50;96.70;;;;;;5094949;28;20058;-72
2023/03/17 12:19:49;;;;;;;2.40;1.20;;;18.10;96.70;;;;;;5094891;28;20133;-72
2023/03/17 12:22:21;;;;;;;;;;;18.20;97.00;;;;;;5095461;28;20107;-71
2023/03/17 12:24:59;;;;;;;0.15;0.15;;;18.50;97.00;;;;;;5094962;28;19918;-73
2023/03/17 12:27:30;;;;;;;1.17;0.52;;;18.10;97.00;;;;;;5094442;28;20029;-71
2023/03/17 12:29:59;;;;;;;0.10;0.10;;;17.70;98.00;;;;;;5095037;28;20078;-71
2023/03/17 12:32:34;;;;;;;0.73;0.32;;;18.50;97.10;;;;;;5094586;28;20028;-72
2023/03/17 12:35:30;;;;;;;1.00;0.57;;;18.80;96.90;;;;;;5093584;28;20028;-72
2023/03/17 12:38:04;;;;;;;0.90;0.47;;;18.60;96.60;;;;;;5091974;28;20048;-71
2023/03/17 12:40:52;;;;;;;0.15;0.15;;;18.30;97.00;;;;;;5094463;28;20074;-71
2023/03/17 12:43:58;;;;;;;0.28;0.28;;;18.40;97.00;;;;;;5082914;28;20064;-72
2023/03/17 12:46:33;;;;;;;0.90;0.45;;;18.40;97.30;;;;;;5094564;28;20032;-72
2023/03/17 12:49:25;;;;;;;0.15;0.15;;;18.80;96.60;;;;;;5094569;28;20032;-71
2023/03/17 12:52:17;;;;;;;4.03;1.27;;;18.80;96.30;;;;;;5093107;28;20487;-71
2023/03/17 12:54:47;;;;;;;2.30;1.13;;;19.20;96.00;;;;;;5093120;28;20061;-71
2023/03/17 12:57:16;;;;;;;0.40;0.40;;;19.20;96.50;;;;;;5094013;28;20023;-71
2023/03/17 12:59:44;;;;;;;4.28;0.80;;;18.70;96.50;;;;;;5094373;28;20059;-72